Weil, Louisiana
Current Conditions -  °F | °C
As of 10:04 AM on Sunday 23 Nov 2014 (Local Time) from KAEX Reporting Station
Light Rain Light Rain  
Wind Chill: 62°   Ceiling: 1400
Heat Index: 62°   Visibility: 3mi
Dew Point: 60°   Wind: 14mph
Humidity: 93%   Direction: 230°SW
Pressure: 29.6"   Gusts: NA
Location:  31.2912°N, 92.5491°W
Report Text: KAEX 231604Z 23012KT 3SM -RA BR OVC014 17/16 A2960 RMK AO2 P0000 T01670156
Loading
Personal Weather Stations






























Interactive Weather Map New forecast layout! Learn more

10-Day Weather Forecast

Advertisements
Track Severe Weather on mobile